sensor_id;sensor_type;location;lat;lon;timestamp;pressure;altitude;pressure_sealevel;temperature;humidity
21504;BME280;10913;51.992;9.228;2022-12-07T00:01:28;100190.78;;;3.67;100.00
21504;BME280;10913;51.992;9.228;2022-12-07T00:03:56;100189.91;;;3.66;100.00
21504;BME280;10913;51.992;9.228;2022-12-07T00:06:26;100180.31;;;3.65;100.00
21504;BME280;10913;51.992;9.228;2022-12-07T00:08:51;100185.53;;;3.65;100.00
21504;BME280;10913;51.992;9.228;2022-12-07T00:11:19;100191.66;;;3.67;100.00
21504;BME280;10913;51.992;9.228;2022-12-07T00:13:46;100182.97;;;3.68;100.00
21504;BME280;10913;51.992;9.228;2022-12-07T00:16:14;100189.97;;;3.69;100.00
21504;BME280;10913;51.992;9.228;2022-12-07T00:18:41;100194.34;;;3.70;100.00
21504;BME280;10913;51.992;9.228;2022-12-07T00:21:28;100190.88;;;3.71;100.00
21504;BME280;10913;51.992;9.228;2022-12-07T00:23:55;100188.25;;;3.71;100.00
21504;BME280;10913;51.992;9.228;2022-12-07T00:26:24;100184.81;;;3.72;100.00
21504;BME280;10913;51.992;9.228;2022-12-07T00:28:52;100183.94;;;3.73;100.00
21504;BME280;10913;51.992;9.228;2022-12-07T00:31:20;100178.75;;;3.75;100.00
21504;BME280;10913;51.992;9.228;2022-12-07T00:33:46;100184.88;;;3.75;100.00
21504;BME280;10913;51.992;9.228;2022-12-07T00:36:15;100182.25;;;3.75;100.00
21504;BME280;10913;51.992;9.228;2022-12-07T00:38:41;100176.19;;;3.76;100.00
21504;BME280;10913;51.992;9.228;2022-12-07T00:41:19;100179.69;;;3.78;100.00
21504;BME280;10913;51.992;9.228;2022-12-07T00:43:45;100177.13;;;3.81;100.00
21504;BME280;10913;51.992;9.228;2022-12-07T00:46:12;100158.88;;;3.85;100.00
21504;BME280;10913;51.992;9.228;2022-12-07T00:48:38;100156.25;;;3.83;100.00
21504;BME280;10913;51.992;9.228;2022-12-07T00:51:05;100152.81;;;3.86;100.00
21504;BME280;10913;51.992;9.228;2022-12-07T00:53:34;100147.59;;;3.86;100.00
21504;BME280;10913;51.992;9.228;2022-12-07T00:56:11;100152.84;;;3.87;100.00
21504;BME280;10913;51.992;9.228;2022-12-07T00:58:37;100152.88;;;3.89;100.00
21504;BME280;10913;51.992;9.228;2022-12-07T01:01:04;100152.03;;;3.90;100.00
21504;BME280;10913;51.992;9.228;2022-12-07T01:03:30;100152.06;;;3.93;100.00
21504;BME280;10913;51.992;9.228;2022-12-07T01:05:56;100144.25;;;3.94;100.00
21504;BME280;10913;51.992;9.228;2022-12-07T01:08:23;100148.66;;;3.97;100.00
21504;BME280;10913;51.992;9.228;2022-12-07T01:10:49;100153.00;;;3.96;100.00
21504;BME280;10913;51.992;9.228;2022-12-07T01:13:15;100154.81;;;4.00;100.00
21504;BME280;10913;51.992;9.228;2022-12-07T01:15:42;100157.44;;;4.02;100.00
21504;BME280;10913;51.992;9.228;2022-12-07T01:18:08;100153.97;;;4.03;100.00
21504;BME280;10913;51.992;9.228;2022-12-07T01:20:34;100162.72;;;4.05;100.00
21504;BME280;10913;51.992;9.228;2022-12-07T01:22:59;100156.63;;;4.04;100.00
21504;BME280;10913;51.992;9.228;2022-12-07T01:25:25;100153.16;;;4.05;100.00
21504;BME280;10913;51.992;9.228;2022-12-07T01:27:50;100157.56;;;4.08;100.00
21504;BME280;10913;51.992;9.228;2022-12-07T01:30:16;100151.44;;;4.07;100.00
21504;BME280;10913;51.992;9.228;2022-12-07T01:32:41;100151.50;;;4.10;100.00
21504;BME280;10913;51.992;9.228;2022-12-07T01:35:07;100151.47;;;4.09;100.00
21504;BME280;10913;51.992;9.228;2022-12-07T01:37:37;100147.13;;;4.09;100.00
21504;BME280;10913;51.992;9.228;2022-12-07T01:40:04;100142.75;;;4.08;100.00
21504;BME280;10913;51.992;9.228;2022-12-07T01:42:30;100141.06;;;4.10;100.00
21504;BME280;10913;51.992;9.228;2022-12-07T01:47:41;100148.91;;;4.10;100.00
21504;BME280;10913;51.992;9.228;2022-12-07T01:50:08;100151.56;;;4.13;100.00
21504;BME280;10913;51.992;9.228;2022-12-07T01:52:34;100148.13;;;4.16;100.00
21504;BME280;10913;51.992;9.228;2022-12-07T01:55:04;100142.94;;;4.18;100.00
21504;BME280;10913;51.992;9.228;2022-12-07T01:57:34;100141.16;;;4.17;100.00
21504;BME280;10913;51.992;9.228;2022-12-07T02:00:04;100135.09;;;4.18;100.00
21504;BME280;10913;51.992;9.228;2022-12-07T02:02:33;100140.34;;;4.19;100.00
21504;BME280;10913;51.992;9.228;2022-12-07T02:05:00;100134.22;;;4.20;100.00
21504;BME280;10913;51.992;9.228;2022-12-07T02:07:27;100136.84;;;4.20;100.00
21504;BME280;10913;51.992;9.228;2022-12-07T02:09:53;100136.88;;;4.23;100.00
21504;BME280;10913;51.992;9.228;2022-12-07T02:12:20;100131.66;;;4.23;100.00
21504;BME280;10913;51.992;9.228;2022-12-07T02:14:47;100125.59;;;4.24;100.00
21504;BME280;10913;51.992;9.228;2022-12-07T02:28:01;100128.19;;;4.24;100.00
21504;BME280;10913;51.992;9.228;2022-12-07T02:30:32;100118.63;;;4.25;100.00
21504;BME280;10913;51.992;9.228;2022-12-07T02:33:08;100124.84;;;4.31;100.00
21504;BME280;10913;51.992;9.228;2022-12-07T02:38:33;100127.50;;;4.34;100.00
21504;BME280;10913;51.992;9.228;2022-12-07T02:41:17;100126.66;;;4.35;100.00
21504;BME280;10913;51.992;9.228;2022-12-07T02:43:48;100118.00;;;4.39;100.00
21504;BME280;10913;51.992;9.228;2022-12-07T02:46:27;100110.09;;;4.36;100.00
21504;BME280;10913;51.992;9.228;2022-12-07T02:48:57;100110.97;;;4.35;100.00
21504;BME280;10913;51.992;9.228;2022-12-07T02:51:24;100110.91;;;4.32;100.00
21504;BME280;10913;51.992;9.228;2022-12-07T02:53:50;100107.38;;;4.30;100.00
21504;BME280;10913;51.992;9.228;2022-12-07T02:56:21;100109.09;;;4.28;100.00
21504;BME280;10913;51.992;9.228;2022-12-07T02:59:07;100100.38;;;4.28;100.00
21504;BME280;10913;51.992;9.228;2022-12-07T03:10:33;100107.22;;;4.18;100.00
21504;BME280;10913;51.992;9.228;2022-12-07T03:13:11;100104.59;;;4.18;100.00
21504;BME280;10913;51.992;9.228;2022-12-07T03:15:46;100104.53;;;4.15;100.00
21504;BME280;10913;51.992;9.228;2022-12-07T03:18:17;100099.31;;;4.15;100.00
21504;BME280;10913;51.992;9.228;2022-12-07T03:20:45;100098.41;;;4.13;100.00
21504;BME280;10913;51.992;9.228;2022-12-07T03:23:14;100098.41;;;4.13;100.00
21504;BME280;10913;51.992;9.228;2022-12-07T03:25:45;100094.00;;;4.10;100.00
21504;BME280;10913;51.992;9.228;2022-12-07T03:28:13;100100.09;;;4.11;100.00
21504;BME280;10913;51.992;9.228;2022-12-07T03:30:49;100094.88;;;4.11;100.00
21504;BME280;10913;51.992;9.228;2022-12-07T03:33:21;100096.66;;;4.12;100.00
21504;BME280;10913;51.992;9.228;2022-12-07T03:36:06;100094.94;;;4.14;100.00
21504;BME280;10913;51.992;9.228;2022-12-07T03:38:44;100088.88;;;4.17;100.00
21504;BME280;10913;51.992;9.228;2022-12-07T03:41:23;100093.22;;;4.16;100.00
21504;BME280;10913;51.992;9.228;2022-12-07T03:43:50;100089.75;;;4.17;100.00
21504;BME280;10913;51.992;9.228;2022-12-07T03:49:07;100092.41;;;4.19;100.00
21504;BME280;10913;51.992;9.228;2022-12-07T03:54:19;100085.41;;;4.18;100.00
21504;BME280;10913;51.992;9.228;2022-12-07T03:56:47;100103.75;;;4.19;100.00
21504;BME280;10913;51.992;9.228;2022-12-07T03:59:14;100095.88;;;4.21;100.00
21504;BME280;10913;51.992;9.228;2022-12-07T04:01:45;100089.81;;;4.22;100.00
21504;BME280;10913;51.992;9.228;2022-12-07T04:04:17;100089.84;;;4.23;100.00
21504;BME280;10913;51.992;9.228;2022-12-07T04:06:42;100088.09;;;4.24;100.00
21504;BME280;10913;51.992;9.228;2022-12-07T04:09:07;100095.97;;;4.25;100.00
21504;BME280;10913;51.992;9.228;2022-12-07T04:11:33;100088.13;;;4.25;100.00
21504;BME280;10913;51.992;9.228;2022-12-07T04:13:58;100087.19;;;4.22;100.00
21504;BME280;10913;51.992;9.228;2022-12-07T04:16:42;100090.63;;;4.18;100.00
21504;BME280;10913;51.992;9.228;2022-12-07T04:19:07;100086.28;;;4.18;100.00
21504;BME280;10913;51.992;9.228;2022-12-07T04:21:33;100094.09;;;4.15;100.00
21504;BME280;10913;51.992;9.228;2022-12-07T04:23:58;100088.81;;;4.12;100.00
21504;BME280;10913;51.992;9.228;2022-12-07T04:26:23;100081.81;;;4.11;100.00
21504;BME280;10913;51.992;9.228;2022-12-07T04:28:49;100089.66;;;4.11;100.00
21504;BME280;10913;51.992;9.228;2022-12-07T04:31:14;100094.84;;;4.09;100.00
21504;BME280;10913;51.992;9.228;2022-12-07T04:33:39;100090.47;;;4.07;100.00
21504;BME280;10913;51.992;9.228;2022-12-07T04:36:05;100099.19;;;4.09;100.00
21504;BME280;10913;51.992;9.228;2022-12-07T04:38:30;100092.25;;;4.09;100.00
21504;BME280;10913;51.992;9.228;2022-12-07T04:40:56;100091.41;;;4.12;100.00
21504;BME280;10913;51.992;9.228;2022-12-07T04:43:21;100101.88;;;4.12;100.00
21504;BME280;10913;51.992;9.228;2022-12-07T04:45:47;100093.22;;;4.16;100.00
21504;BME280;10913;51.992;9.228;2022-12-07T04:48:13;100095.00;;;4.17;100.00
21504;BME280;10913;51.992;9.228;2022-12-07T04:50:42;100094.09;;;4.17;100.00
21504;BME280;10913;51.992;9.228;2022-12-07T04:53:07;100096.75;;;4.18;100.00
21504;BME280;10913;51.992;9.228;2022-12-07T04:55:32;100093.28;;;4.19;100.00
21504;BME280;10913;51.992;9.228;2022-12-07T04:57:58;100096.78;;;4.21;100.00
21504;BME280;10913;51.992;9.228;2022-12-07T05:00:23;100086.31;;;4.21;100.00
21504;BME280;10913;51.992;9.228;2022-12-07T05:02:48;100100.25;;;4.22;100.00
21504;BME280;10913;51.992;9.228;2022-12-07T05:05:14;100085.47;;;4.22;100.00
21504;BME280;10913;51.992;9.228;2022-12-07T05:07:39;100080.22;;;4.22;100.00
21504;BME280;10913;51.992;9.228;2022-12-07T05:10:05;100088.13;;;4.25;100.00
21504;BME280;10913;51.992;9.228;2022-12-07T05:12:31;100085.47;;;4.22;100.00
21504;BME280;10913;51.992;9.228;2022-12-07T05:14:56;100081.13;;;4.24;100.00
21504;BME280;10913;51.992;9.228;2022-12-07T05:17:22;100082.88;;;4.25;100.00
21504;BME280;10913;51.992;9.228;2022-12-07T05:19:47;100082.94;;;4.28;100.00
21504;BME280;10913;51.992;9.228;2022-12-07T05:22:12;100084.72;;;4.29;100.00
21504;BME280;10913;51.992;9.228;2022-12-07T05:24:38;100085.53;;;4.27;100.00
21504;BME280;10913;51.992;9.228;2022-12-07T05:27:03;100083.78;;;4.26;100.00
21504;BME280;10913;51.992;9.228;2022-12-07T05:29:29;100084.66;;;4.26;100.00
21504;BME280;10913;51.992;9.228;2022-12-07T05:31:54;100083.75;;;4.24;100.00
21504;BME280;10913;51.992;9.228;2022-12-07T05:34:20;100084.66;;;4.26;100.00
21504;BME280;10913;51.992;9.228;2022-12-07T05:36:45;100085.47;;;4.24;100.00
21504;BME280;10913;51.992;9.228;2022-12-07T05:39:11;100084.66;;;4.26;100.00
21504;BME280;10913;51.992;9.228;2022-12-07T05:41:36;100081.19;;;4.27;100.00
21504;BME280;10913;51.992;9.228;2022-12-07T05:44:20;100075.94;;;4.26;100.00
21504;BME280;10913;51.992;9.228;2022-12-07T05:46:45;100074.19;;;4.26;100.00
21504;BME280;10913;51.992;9.228;2022-12-07T05:49:10;100080.31;;;4.27;100.00
21504;BME280;10913;51.992;9.228;2022-12-07T05:51:36;100077.69;;;4.27;100.00
21504;BME280;10913;51.992;9.228;2022-12-07T05:54:01;100081.16;;;4.26;100.00
21504;BME280;10913;51.992;9.228;2022-12-07T05:56:27;100082.84;;;4.22;100.00
21504;BME280;10913;51.992;9.228;2022-12-07T05:58:53;100065.41;;;4.21;100.00
21504;BME280;10913;51.992;9.228;2022-12-07T06:01:37;100076.72;;;4.20;100.00
21504;BME280;10913;51.992;9.228;2022-12-07T06:04:02;100066.28;;;4.22;100.00
21504;BME280;10913;51.992;9.228;2022-12-07T06:06:28;100074.16;;;4.23;100.00
21504;BME280;10913;51.992;9.228;2022-12-07T06:08:53;100071.53;;;4.23;100.00
21504;BME280;10913;51.992;9.228;2022-12-07T06:11:19;100069.81;;;4.25;100.00
21504;BME280;10913;51.992;9.228;2022-12-07T06:14:03;100078.53;;;4.24;100.00
21504;BME280;10913;51.992;9.228;2022-12-07T06:16:28;100074.19;;;4.26;100.00
21504;BME280;10913;51.992;9.228;2022-12-07T06:18:53;100073.34;;;4.27;100.00
21504;BME280;10913;51.992;9.228;2022-12-07T06:21:19;100070.72;;;4.27;100.00
21504;BME280;10913;51.992;9.228;2022-12-07T06:23:44;100069.84;;;4.27;100.00
21504;BME280;10913;51.992;9.228;2022-12-07T06:26:09;100078.56;;;4.27;100.00
21504;BME280;10913;51.992;9.228;2022-12-07T06:28:35;100075.06;;;4.25;100.00
21504;BME280;10913;51.992;9.228;2022-12-07T06:31:01;100082.88;;;4.25;100.00
21504;BME280;10913;51.992;9.228;2022-12-07T06:33:28;100074.13;;;4.22;100.00
21504;BME280;10913;51.992;9.228;2022-12-07T06:35:54;100077.59;;;4.21;100.00
21504;BME280;10913;51.992;9.228;2022-12-07T06:38:19;100075.88;;;4.23;100.00
21504;BME280;10913;51.992;9.228;2022-12-07T06:40:45;100062.81;;;4.23;100.00
21504;BME280;10913;51.992;9.228;2022-12-07T06:43:10;100074.16;;;4.23;100.00
21504;BME280;10913;51.992;9.228;2022-12-07T06:45:35;100086.38;;;4.24;100.00
21504;BME280;10913;51.992;9.228;2022-12-07T06:48:04;100072.38;;;4.22;100.00
21504;BME280;10913;51.992;9.228;2022-12-07T06:50:29;100085.47;;;4.24;100.00
21504;BME280;10913;51.992;9.228;2022-12-07T06:52:55;100088.06;;;4.19;100.00
21504;BME280;10913;51.992;9.228;2022-12-07T06:55:20;100087.16;;;4.17;100.00
21504;BME280;10913;51.992;9.228;2022-12-07T06:57:49;100091.53;;;4.18;100.00
21504;BME280;10913;51.992;9.228;2022-12-07T07:00:14;100092.38;;;4.17;100.00
21504;BME280;10913;51.992;9.228;2022-12-07T07:02:40;100089.78;;;4.19;100.00
21504;BME280;10913;51.992;9.228;2022-12-07T07:05:05;100084.56;;;4.19;100.00
21504;BME280;10913;51.992;9.228;2022-12-07T07:07:31;100083.69;;;4.18;100.00
21504;BME280;10913;51.992;9.228;2022-12-07T07:09:56;100082.78;;;4.16;100.00
21504;BME280;10913;51.992;9.228;2022-12-07T07:12:22;100095.84;;;4.16;100.00
21504;BME280;10913;51.992;9.228;2022-12-07T07:14:47;100101.91;;;4.13;100.00
21504;BME280;10913;51.992;9.228;2022-12-07T07:17:13;100100.16;;;4.14;100.00
21504;BME280;10913;51.992;9.228;2022-12-07T07:19:38;100106.28;;;4.14;100.00
21504;BME280;10913;51.992;9.228;2022-12-07T07:22:04;100105.44;;;4.17;100.00
21504;BME280;10913;51.992;9.228;2022-12-07T07:24:29;100107.19;;;4.17;100.00
21504;BME280;10913;51.992;9.228;2022-12-07T07:26:55;100098.47;;;4.16;100.00
21504;BME280;10913;51.992;9.228;2022-12-07T07:29:20;100109.78;;;4.17;100.00
21504;BME280;10913;51.992;9.228;2022-12-07T07:31:45;100110.66;;;4.15;100.00
21504;BME280;10913;51.992;9.228;2022-12-07T07:34:11;100115.00;;;4.15;100.00
21504;BME280;10913;51.992;9.228;2022-12-07T07:36:36;100108.91;;;4.16;100.00
21504;BME280;10913;51.992;9.228;2022-12-07T07:39:02;100111.53;;;4.16;100.00
21504;BME280;10913;51.992;9.228;2022-12-07T07:41:27;100108.03;;;4.15;100.00
21504;BME280;10913;51.992;9.228;2022-12-07T07:43:53;100111.50;;;4.14;100.00
21504;BME280;10913;51.992;9.228;2022-12-07T07:46:21;100118.47;;;4.14;100.00
21504;BME280;10913;51.992;9.228;2022-12-07T07:48:47;100113.25;;;4.15;100.00
21504;BME280;10913;51.992;9.228;2022-12-07T07:51:12;100109.75;;;4.13;100.00
21504;BME280;10913;51.992;9.228;2022-12-07T07:53:38;100116.69;;;4.13;100.00
21504;BME280;10913;51.992;9.228;2022-12-07T07:56:03;100119.31;;;4.13;100.00
21504;BME280;10913;51.992;9.228;2022-12-07T07:58:28;100118.44;;;4.12;100.00
21504;BME280;10913;51.992;9.228;2022-12-07T08:00:54;100112.38;;;4.15;100.00
21504;BME280;10913;51.992;9.228;2022-12-07T08:03:20;100119.44;;;4.19;100.00
21504;BME280;10913;51.992;9.228;2022-12-07T08:05:45;100113.31;;;4.20;100.00
21504;BME280;10913;51.992;9.228;2022-12-07T08:08:11;100131.59;;;4.20;100.00
21504;BME280;10913;51.992;9.228;2022-12-07T08:10:36;100115.91;;;4.20;100.00
21504;BME280;10913;51.992;9.228;2022-12-07T08:13:03;100115.91;;;4.20;100.00
21504;BME280;10913;51.992;9.228;2022-12-07T08:15:43;100116.81;;;4.22;100.00
21504;BME280;10913;51.992;9.228;2022-12-07T08:18:08;100123.78;;;4.22;100.00
21504;BME280;10913;51.992;9.228;2022-12-07T08:20:35;100125.53;;;4.21;100.00
21504;BME280;10913;51.992;9.228;2022-12-07T08:23:01;100123.75;;;4.20;100.00
21504;BME280;10913;51.992;9.228;2022-12-07T08:25:27;100132.50;;;4.22;100.00
21504;BME280;10913;51.992;9.228;2022-12-07T08:27:52;100129.03;;;4.23;100.00
21504;BME280;10913;51.992;9.228;2022-12-07T08:30:18;100131.66;;;4.23;100.00
21504;BME280;10913;51.992;9.228;2022-12-07T08:32:45;100134.22;;;4.20;100.00
21504;BME280;10913;51.992;9.228;2022-12-07T08:35:12;100131.59;;;4.20;100.00
21504;BME280;10913;51.992;9.228;2022-12-07T08:37:38;100136.00;;;4.20;100.00
21504;BME280;10913;51.992;9.228;2022-12-07T08:40:06;100136.81;;;4.17;100.00
21504;BME280;10913;51.992;9.228;2022-12-07T08:42:32;100136.81;;;4.17;100.00
21504;BME280;10913;51.992;9.228;2022-12-07T08:45:13;100127.25;;;4.18;100.00
21504;BME280;10913;51.992;9.228;2022-12-07T08:47:43;100130.72;;;4.18;100.00
21504;BME280;10913;51.992;9.228;2022-12-07T08:50:10;100133.38;;;4.21;100.00
21504;BME280;10913;51.992;9.228;2022-12-07T08:52:36;100124.72;;;4.25;100.00
21504;BME280;10913;51.992;9.228;2022-12-07T08:55:03;100126.59;;;4.32;100.00
21504;BME280;10913;51.992;9.228;2022-12-07T08:57:30;100128.31;;;4.30;100.00
21504;BME280;10913;51.992;9.228;2022-12-07T08:59:58;100131.81;;;4.32;100.00
21504;BME280;10913;51.992;9.228;2022-12-07T09:02:23;100127.47;;;4.33;100.00
21504;BME280;10913;51.992;9.228;2022-12-07T09:04:49;100132.66;;;4.30;100.00
21504;BME280;10913;51.992;9.228;2022-12-07T09:07:14;100116.09;;;4.31;100.00
21504;BME280;10913;51.992;9.228;2022-12-07T09:09:40;100123.13;;;4.33;100.00
21504;BME280;10913;51.992;9.228;2022-12-07T09:12:05;100135.34;;;4.34;100.00
21504;BME280;10913;51.992;9.228;2022-12-07T09:14:30;100134.50;;;4.35;100.00
21504;BME280;10913;51.992;9.228;2022-12-07T09:17:08;100137.97;;;4.34;100.00
21504;BME280;10913;51.992;9.228;2022-12-07T09:19:34;100148.38;;;4.31;100.00
21504;BME280;10913;51.992;9.228;2022-12-07T09:21:59;100137.94;;;4.33;100.00
21504;BME280;10913;51.992;9.228;2022-12-07T09:24:25;100142.34;;;4.35;100.00
21504;BME280;10913;51.992;9.228;2022-12-07T09:26:50;100143.22;;;4.36;100.00
21504;BME280;10913;51.992;9.228;2022-12-07T09:29:15;100143.25;;;4.37;100.00
21504;BME280;10913;51.992;9.228;2022-12-07T09:31:41;100138.91;;;4.39;100.00
21504;BME280;10913;51.992;9.228;2022-12-07T09:34:06;100146.78;;;4.42;100.00
21504;BME280;10913;51.992;9.228;2022-12-07T09:36:32;100144.19;;;4.44;100.00
21504;BME280;10913;51.992;9.228;2022-12-07T09:38:57;100141.63;;;4.47;100.00
21504;BME280;10913;51.992;9.228;2022-12-07T09:41:24;100140.88;;;4.54;100.00
21504;BME280;10913;51.992;9.228;2022-12-07T09:43:51;100147.91;;;4.60;100.00
21504;BME280;10913;51.992;9.228;2022-12-07T09:46:19;100145.28;;;4.60;100.00
21504;BME280;10913;51.992;9.228;2022-12-07T09:48:46;100136.59;;;4.59;100.00
21504;BME280;10913;51.992;9.228;2022-12-07T09:51:23;100141.84;;;4.59;100.00
21504;BME280;10913;51.992;9.228;2022-12-07T09:53:49;100132.25;;;4.63;100.00
21504;BME280;10913;51.992;9.228;2022-12-07T09:56:17;100130.53;;;4.63;100.00
21504;BME280;10913;51.992;9.228;2022-12-07T09:58:43;100134.06;;;4.67;100.00
21504;BME280;10913;51.992;9.228;2022-12-07T10:01:18;100126.25;;;4.68;100.00
21504;BME280;10913;51.992;9.228;2022-12-07T10:03:46;100123.75;;;4.76;100.00
21504;BME280;10913;51.992;9.228;2022-12-07T10:06:14;100122.16;;;4.87;100.00
21504;BME280;10913;51.992;9.228;2022-12-07T10:08:39;100122.16;;;4.89;100.00
21504;BME280;10913;51.992;9.228;2022-12-07T10:11:06;100125.63;;;4.86;100.00
21504;BME280;10913;51.992;9.228;2022-12-07T10:13:47;100124.97;;;5.04;100.00
21504;BME280;10913;51.992;9.228;2022-12-07T10:19:27;100125.44;;;5.42;100.00
21504;BME280;10913;51.992;9.228;2022-12-07T10:24:31;100119.31;;;5.43;100.00
21504;BME280;10913;51.992;9.228;2022-12-07T10:26:57;100111.44;;;5.41;100.00
21504;BME280;10913;51.992;9.228;2022-12-07T10:29:37;100110.56;;;5.41;100.00
21504;BME280;10913;51.992;9.228;2022-12-07T10:32:34;100110.59;;;5.39;100.00
21504;BME280;10913;51.992;9.228;2022-12-07T10:35:25;100114.06;;;5.40;100.00
21504;BME280;10913;51.992;9.228;2022-12-07T10:37:53;100113.19;;;5.39;100.00
21504;BME280;10913;51.992;9.228;2022-12-07T10:40:26;100109.69;;;5.40;100.00
21504;BME280;10913;51.992;9.228;2022-12-07T10:57:03;100104.34;;;5.30;100.00
21504;BME280;10913;51.992;9.228;2022-12-07T11:18:14;100085.09;;;5.26;100.00
21504;BME280;10913;51.992;9.228;2022-12-07T11:31:29;100075.56;;;5.33;100.00
21504;BME280;10913;51.992;9.228;2022-12-07T11:34:06;100073.91;;;5.39;100.00
21504;BME280;10913;51.992;9.228;2022-12-07T11:36:44;100073.13;;;5.49;100.00
21504;BME280;10913;51.992;9.228;2022-12-07T11:39:33;100070.59;;;5.60;100.00
21504;BME280;10913;51.992;9.228;2022-12-07T11:42:24;100070.63;;;5.63;100.00
21504;BME280;10913;51.992;9.228;2022-12-07T11:44:55;100062.88;;;5.72;100.00
21504;BME280;10913;51.992;9.228;2022-12-07T11:47:26;100052.44;;;5.77;100.00
21504;BME280;10913;51.992;9.228;2022-12-07T11:50:57;100047.16;;;5.74;100.00
21504;BME280;10913;51.992;9.228;2022-12-07T11:53:01;100052.34;;;5.69;100.00
21504;BME280;10913;51.992;9.228;2022-12-07T12:06:24;100035.84;;;5.82;100.00
21504;BME280;10913;51.992;9.228;2022-12-07T12:08:59;100045.50;;;5.86;100.00
21504;BME280;10913;51.992;9.228;2022-12-07T12:12:06;100034.09;;;5.78;100.00
21504;BME280;10913;51.992;9.228;2022-12-07T12:15:33;100028.84;;;5.80;100.00
21504;BME280;10913;51.992;9.228;2022-12-07T12:18:06;100033.22;;;5.82;100.00
21504;BME280;10913;51.992;9.228;2022-12-07T12:23:14;100034.13;;;5.83;100.00
21504;BME280;10913;51.992;9.228;2022-12-07T12:31:16;100025.34;;;5.81;100.00
21504;BME280;10913;51.992;9.228;2022-12-07T12:33:57;100028.84;;;5.81;100.00
21504;BME280;10913;51.992;9.228;2022-12-07T12:44:01;100010.53;;;5.83;100.00
21504;BME280;10913;51.992;9.228;2022-12-07T12:54:33;100013.19;;;5.87;100.00
21504;BME280;10913;51.992;9.228;2022-12-07T12:57:30;100009.75;;;5.92;100.00
21504;BME280;10913;51.992;9.228;2022-12-07T13:00:00;100005.31;;;5.87;100.00
21504;BME280;10913;51.992;9.228;2022-12-07T13:02:29;100003.56;;;5.86;100.00
21504;BME280;10913;51.992;9.228;2022-12-07T13:05:14;100002.69;;;5.87;100.00
21504;BME280;10913;51.992;9.228;2022-12-07T13:18:25;99998.41;;;5.91;100.00
21504;BME280;10913;51.992;9.228;2022-12-07T13:28:41;99984.31;;;5.84;100.00
21504;BME280;10913;51.992;9.228;2022-12-07T13:31:47;99993.91;;;5.76;100.00
21504;BME280;10913;51.992;9.228;2022-12-07T13:37:01;99989.41;;;5.63;100.00
21504;BME280;10913;51.992;9.228;2022-12-07T13:39:27;99983.25;;;5.61;100.00
21504;BME280;10913;51.992;9.228;2022-12-07T13:41:58;99990.25;;;5.62;100.00
21504;BME280;10913;51.992;9.228;2022-12-07T13:44:27;99981.47;;;5.54;100.00
21504;BME280;10913;51.992;9.228;2022-12-07T13:49:45;99967.50;;;5.52;100.00
21504;BME280;10913;51.992;9.228;2022-12-07T13:54:58;99960.56;;;5.57;100.00
21504;BME280;10913;51.992;9.228;2022-12-07T13:57:25;99978.94;;;5.65;100.00
21504;BME280;10913;51.992;9.228;2022-12-07T13:59:51;99963.25;;;5.68;100.00
21504;BME280;10913;51.992;9.228;2022-12-07T14:02:22;99958.91;;;5.71;100.00
21504;BME280;10913;51.992;9.228;2022-12-07T14:04:50;99952.78;;;5.71;100.00
21504;BME280;10913;51.992;9.228;2022-12-07T14:07:25;99957.19;;;5.76;100.00
21504;BME280;10913;51.992;9.228;2022-12-07T14:10:03;99956.34;;;5.82;100.00
21504;BME280;10913;51.992;9.228;2022-12-07T14:12:30;99965.09;;;5.84;100.00
21504;BME280;10913;51.992;9.228;2022-12-07T14:14:58;99966.84;;;5.83;100.00
21504;BME280;10913;51.992;9.228;2022-12-07T14:17:26;99972.06;;;5.83;100.00
21504;BME280;10913;51.992;9.228;2022-12-07T14:19:53;99972.06;;;5.80;100.00
21504;BME280;10913;51.992;9.228;2022-12-07T14:22:43;99971.19;;;5.80;100.00
21504;BME280;10913;51.992;9.228;2022-12-07T14:25:18;99969.44;;;5.77;100.00
21504;BME280;10913;51.992;9.228;2022-12-07T14:27:55;99978.13;;;5.73;100.00
21504;BME280;10913;51.992;9.228;2022-12-07T14:30:22;99971.13;;;5.71;100.00
21504;BME280;10913;51.992;9.228;2022-12-07T14:32:53;99964.16;;;5.71;100.00
21504;BME280;10913;51.992;9.228;2022-12-07T14:35:19;99951.91;;;5.70;100.00
21504;BME280;10913;51.992;9.228;2022-12-07T14:37:47;99953.66;;;5.70;100.00
21504;BME280;10913;51.992;9.228;2022-12-07T14:40:33;99946.63;;;5.67;100.00
21504;BME280;10913;51.992;9.228;2022-12-07T14:43:12;99952.69;;;5.62;100.00
21504;BME280;10913;51.992;9.228;2022-12-07T14:45:39;99951.78;;;5.55;100.00
21504;BME280;10913;51.992;9.228;2022-12-07T14:48:06;99950.00;;;5.51;100.00
21504;BME280;10913;51.992;9.228;2022-12-07T14:50:37;99953.47;;;5.47;100.00
21504;BME280;10913;51.992;9.228;2022-12-07T14:53:10;99949.06;;;5.44;100.00
21504;BME280;10913;51.992;9.228;2022-12-07T14:55:37;99955.16;;;5.42;100.00
21504;BME280;10913;51.992;9.228;2022-12-07T14:58:03;99960.41;;;5.39;100.00
21504;BME280;10913;51.992;9.228;2022-12-07T15:00:29;99958.63;;;5.35;100.00
21504;BME280;10913;51.992;9.228;2022-12-07T15:02:55;99961.16;;;5.29;100.00
21504;BME280;10913;51.992;9.228;2022-12-07T15:05:21;99959.41;;;5.28;100.00
21504;BME280;10913;51.992;9.228;2022-12-07T15:07:48;99957.66;;;5.28;100.00
21504;BME280;10913;51.992;9.228;2022-12-07T15:10:20;99960.22;;;5.22;100.00
21504;BME280;10913;51.992;9.228;2022-12-07T15:12:46;99956.72;;;5.22;100.00
21504;BME280;10913;51.992;9.228;2022-12-07T15:15:12;99954.09;;;5.20;100.00
21504;BME280;10913;51.992;9.228;2022-12-07T15:17:38;99954.97;;;5.20;100.00
21504;BME280;10913;51.992;9.228;2022-12-07T15:20:04;99954.97;;;5.20;100.00
21504;BME280;10913;51.992;9.228;2022-12-07T15:22:30;99961.09;;;5.21;100.00